sensor_id;sensor_type;location;lat;lon;timestamp;P1;durP1;ratioP1;P2;durP2;ratioP2
14472;SDS011;7322;50.872;4.386;2023-03-01T00:01:18;4.13;;;3.67;;
14472;SDS011;7322;50.872;4.386;2023-03-01T00:03:49;4.63;;;3.57;;
14472;SDS011;7322;50.872;4.386;2023-03-01T00:06:24;4.67;;;3.70;;
14472;SDS011;7322;50.872;4.386;2023-03-01T00:08:52;3.67;;;3.13;;
14472;SDS011;7322;50.872;4.386;2023-03-01T00:11:21;4.53;;;3.67;;
14472;SDS011;7322;50.872;4.386;2023-03-01T00:13:50;3.97;;;3.07;;
14472;SDS011;7322;50.872;4.386;2023-03-01T00:16:20;4.13;;;3.57;;
14472;SDS011;7322;50.872;4.386;2023-03-01T00:18:55;3.50;;;3.20;;
14472;SDS011;7322;50.872;4.386;2023-03-01T00:21:25;4.37;;;3.40;;
14472;SDS011;7322;50.872;4.386;2023-03-01T00:23:54;4.37;;;3.47;;
14472;SDS011;7322;50.872;4.386;2023-03-01T00:26:28;4.40;;;3.40;;
14472;SDS011;7322;50.872;4.386;2023-03-01T00:29:04;3.73;;;3.07;;
14472;SDS011;7322;50.872;4.386;2023-03-01T00:31:34;4.80;;;3.33;;
14472;SDS011;7322;50.872;4.386;2023-03-01T00:39:38;4.63;;;3.13;;
14472;SDS011;7322;50.872;4.386;2023-03-01T00:42:10;3.93;;;3.17;;
14472;SDS011;7322;50.872;4.386;2023-03-01T00:44:41;4.37;;;3.13;;
14472;SDS011;7322;50.872;4.386;2023-03-01T00:47:14;4.27;;;3.23;;
14472;SDS011;7322;50.872;4.386;2023-03-01T00:49:43;4.20;;;3.50;;
14472;SDS011;7322;50.872;4.386;2023-03-01T00:52:13;4.13;;;3.30;;
14472;SDS011;7322;50.872;4.386;2023-03-01T00:54:40;4.80;;;3.30;;
14472;SDS011;7322;50.872;4.386;2023-03-01T00:57:07;3.37;;;3.07;;
14472;SDS011;7322;50.872;4.386;2023-03-01T01:02:10;3.47;;;2.90;;
14472;SDS011;7322;50.872;4.386;2023-03-01T01:04:38;4.13;;;3.17;;
14472;SDS011;7322;50.872;4.386;2023-03-01T01:07:08;3.63;;;2.97;;
14472;SDS011;7322;50.872;4.386;2023-03-01T01:09:39;3.93;;;3.20;;
14472;SDS011;7322;50.872;4.386;2023-03-01T01:12:14;3.00;;;2.70;;
14472;SDS011;7322;50.872;4.386;2023-03-01T01:14:49;3.37;;;3.07;;
14472;SDS011;7322;50.872;4.386;2023-03-01T01:20:04;3.43;;;2.70;;
14472;SDS011;7322;50.872;4.386;2023-03-01T01:22:38;4.23;;;3.10;;
14472;SDS011;7322;50.872;4.386;2023-03-01T01:25:16;4.10;;;3.03;;
14472;SDS011;7322;50.872;4.386;2023-03-01T01:30:32;3.40;;;2.63;;
14472;SDS011;7322;50.872;4.386;2023-03-01T01:33:10;3.63;;;2.90;;
14472;SDS011;7322;50.872;4.386;2023-03-01T01:35:46;3.50;;;3.13;;
14472;SDS011;7322;50.872;4.386;2023-03-01T01:38:23;3.40;;;2.90;;
14472;SDS011;7322;50.872;4.386;2023-03-01T01:40:52;4.27;;;2.83;;
14472;SDS011;7322;50.872;4.386;2023-03-01T01:43:22;3.53;;;3.10;;
14472;SDS011;7322;50.872;4.386;2023-03-01T01:46:01;3.50;;;3.20;;
14472;SDS011;7322;50.872;4.386;2023-03-01T01:51:13;3.20;;;2.90;;
14472;SDS011;7322;50.872;4.386;2023-03-01T01:53:46;3.10;;;2.80;;
14472;SDS011;7322;50.872;4.386;2023-03-01T01:56:27;2.63;;;2.30;;
14472;SDS011;7322;50.872;4.386;2023-03-01T02:01:51;3.40;;;2.47;;
14472;SDS011;7322;50.872;4.386;2023-03-01T02:04:21;4.17;;;3.00;;
14472;SDS011;7322;50.872;4.386;2023-03-01T02:06:53;3.10;;;2.70;;
14472;SDS011;7322;50.872;4.386;2023-03-01T02:09:26;3.17;;;2.87;;
14472;SDS011;7322;50.872;4.386;2023-03-01T02:11:55;3.10;;;2.73;;
14472;SDS011;7322;50.872;4.386;2023-03-01T02:14:30;3.50;;;2.53;;
14472;SDS011;7322;50.872;4.386;2023-03-01T02:16:59;3.37;;;2.80;;
14472;SDS011;7322;50.872;4.386;2023-03-01T02:19:38;3.20;;;2.60;;
14472;SDS011;7322;50.872;4.386;2023-03-01T02:22:18;3.93;;;2.80;;
14472;SDS011;7322;50.872;4.386;2023-03-01T02:24:54;3.63;;;2.80;;
14472;SDS011;7322;50.872;4.386;2023-03-01T02:27:35;3.87;;;2.87;;
14472;SDS011;7322;50.872;4.386;2023-03-01T02:30:08;4.10;;;2.80;;
14472;SDS011;7322;50.872;4.386;2023-03-01T02:32:44;2.50;;;2.30;;
14472;SDS011;7322;50.872;4.386;2023-03-01T02:35:12;3.97;;;2.90;;
14472;SDS011;7322;50.872;4.386;2023-03-01T02:37:41;2.87;;;2.60;;
14472;SDS011;7322;50.872;4.386;2023-03-01T02:40:12;2.70;;;2.50;;
14472;SDS011;7322;50.872;4.386;2023-03-01T02:42:45;2.83;;;2.43;;
14472;SDS011;7322;50.872;4.386;2023-03-01T02:45:23;3.43;;;2.37;;
14472;SDS011;7322;50.872;4.386;2023-03-01T02:47:53;3.17;;;2.57;;
14472;SDS011;7322;50.872;4.386;2023-03-01T02:53:27;2.97;;;2.60;;
14472;SDS011;7322;50.872;4.386;2023-03-01T02:56:09;3.30;;;2.60;;
14472;SDS011;7322;50.872;4.386;2023-03-01T02:58:38;2.97;;;2.60;;
14472;SDS011;7322;50.872;4.386;2023-03-01T03:01:17;2.77;;;2.33;;
14472;SDS011;7322;50.872;4.386;2023-03-01T03:03:45;2.70;;;2.40;;
14472;SDS011;7322;50.872;4.386;2023-03-01T03:06:18;2.70;;;2.40;;
14472;SDS011;7322;50.872;4.386;2023-03-01T03:08:47;2.83;;;2.40;;
14472;SDS011;7322;50.872;4.386;2023-03-01T03:16:32;2.70;;;2.33;;
14472;SDS011;7322;50.872;4.386;2023-03-01T03:18:59;2.97;;;2.30;;
14472;SDS011;7322;50.872;4.386;2023-03-01T03:21:31;2.77;;;2.37;;
14472;SDS011;7322;50.872;4.386;2023-03-01T03:23:59;2.80;;;2.23;;
14472;SDS011;7322;50.872;4.386;2023-03-01T03:29:18;3.50;;;2.40;;
14472;SDS011;7322;50.872;4.386;2023-03-01T03:31:54;3.07;;;2.60;;
14472;SDS011;7322;50.872;4.386;2023-03-01T03:34:22;2.57;;;2.33;;
14472;SDS011;7322;50.872;4.386;2023-03-01T03:36:52;2.43;;;2.20;;
14472;SDS011;7322;50.872;4.386;2023-03-01T03:39:28;3.07;;;2.53;;
14472;SDS011;7322;50.872;4.386;2023-03-01T03:42:09;2.33;;;2.13;;
14472;SDS011;7322;50.872;4.386;2023-03-01T03:44:38;3.53;;;2.50;;
14472;SDS011;7322;50.872;4.386;2023-03-01T03:47:14;2.83;;;2.23;;
14472;SDS011;7322;50.872;4.386;2023-03-01T03:49:48;2.33;;;2.10;;
14472;SDS011;7322;50.872;4.386;2023-03-01T03:52:19;3.10;;;2.60;;
14472;SDS011;7322;50.872;4.386;2023-03-01T03:54:53;2.60;;;2.13;;
14472;SDS011;7322;50.872;4.386;2023-03-01T04:00:09;2.87;;;2.40;;
14472;SDS011;7322;50.872;4.386;2023-03-01T04:05:22;2.90;;;2.40;;
14472;SDS011;7322;50.872;4.386;2023-03-01T04:07:50;2.63;;;2.17;;
14472;SDS011;7322;50.872;4.386;2023-03-01T04:10:33;2.50;;;2.30;;
14472;SDS011;7322;50.872;4.386;2023-03-01T04:13:03;2.37;;;2.17;;
14472;SDS011;7322;50.872;4.386;2023-03-01T04:15:32;2.30;;;2.10;;
14472;SDS011;7322;50.872;4.386;2023-03-01T04:18:01;3.07;;;2.40;;
14472;SDS011;7322;50.872;4.386;2023-03-01T04:20:31;2.90;;;2.40;;
14472;SDS011;7322;50.872;4.386;2023-03-01T04:23:02;2.17;;;1.93;;
14472;SDS011;7322;50.872;4.386;2023-03-01T04:25:45;2.27;;;1.93;;
14472;SDS011;7322;50.872;4.386;2023-03-01T04:28:18;2.40;;;2.20;;
14472;SDS011;7322;50.872;4.386;2023-03-01T04:30:53;2.93;;;2.20;;
14472;SDS011;7322;50.872;4.386;2023-03-01T04:33:23;2.27;;;2.00;;
14472;SDS011;7322;50.872;4.386;2023-03-01T04:36:05;2.93;;;2.20;;
14472;SDS011;7322;50.872;4.386;2023-03-01T04:38:35;2.53;;;2.20;;
14472;SDS011;7322;50.872;4.386;2023-03-01T04:41:05;2.10;;;1.90;;
14472;SDS011;7322;50.872;4.386;2023-03-01T04:43:36;2.53;;;2.20;;
14472;SDS011;7322;50.872;4.386;2023-03-01T04:46:04;2.50;;;2.30;;
14472;SDS011;7322;50.872;4.386;2023-03-01T04:48:35;1.93;;;1.80;;
14472;SDS011;7322;50.872;4.386;2023-03-01T04:51:03;3.07;;;2.23;;
14472;SDS011;7322;50.872;4.386;2023-03-01T04:53:32;2.67;;;2.20;;
14472;SDS011;7322;50.872;4.386;2023-03-01T04:56:01;2.40;;;2.17;;
14472;SDS011;7322;50.872;4.386;2023-03-01T04:58:30;2.00;;;1.80;;
14472;SDS011;7322;50.872;4.386;2023-03-01T05:00:58;2.20;;;2.00;;
14472;SDS011;7322;50.872;4.386;2023-03-01T05:03:26;2.40;;;2.20;;
14472;SDS011;7322;50.872;4.386;2023-03-01T05:05:58;2.00;;;1.80;;
14472;SDS011;7322;50.872;4.386;2023-03-01T05:08:26;2.87;;;2.00;;
14472;SDS011;7322;50.872;4.386;2023-03-01T05:10:55;1.90;;;1.60;;
14472;SDS011;7322;50.872;4.386;2023-03-01T05:13:22;2.43;;;2.17;;
14472;SDS011;7322;50.872;4.386;2023-03-01T05:15:53;2.47;;;2.00;;
14472;SDS011;7322;50.872;4.386;2023-03-01T05:18:22;1.80;;;1.70;;
14472;SDS011;7322;50.872;4.386;2023-03-01T05:20:51;1.93;;;1.63;;
14472;SDS011;7322;50.872;4.386;2023-03-01T05:23:23;2.37;;;2.00;;
14472;SDS011;7322;50.872;4.386;2023-03-01T05:25:53;1.93;;;1.73;;
14472;SDS011;7322;50.872;4.386;2023-03-01T05:28:20;3.10;;;2.20;;
14472;SDS011;7322;50.872;4.386;2023-03-01T05:30:47;2.40;;;2.17;;
14472;SDS011;7322;50.872;4.386;2023-03-01T05:33:17;1.87;;;1.70;;
14472;SDS011;7322;50.872;4.386;2023-03-01T05:35:48;2.00;;;1.80;;
14472;SDS011;7322;50.872;4.386;2023-03-01T05:38:18;2.30;;;2.10;;
14472;SDS011;7322;50.872;4.386;2023-03-01T05:40:51;2.00;;;1.90;;
14472;SDS011;7322;50.872;4.386;2023-03-01T05:43:17;2.40;;;2.00;;
14472;SDS011;7322;50.872;4.386;2023-03-01T05:48:22;2.27;;;2.00;;
14472;SDS011;7322;50.872;4.386;2023-03-01T05:50:53;2.13;;;1.90;;
14472;SDS011;7322;50.872;4.386;2023-03-01T05:53:21;2.10;;;1.80;;
14472;SDS011;7322;50.872;4.386;2023-03-01T05:55:53;1.90;;;1.70;;
14472;SDS011;7322;50.872;4.386;2023-03-01T05:58:20;2.27;;;1.93;;
14472;SDS011;7322;50.872;4.386;2023-03-01T06:00:48;1.90;;;1.70;;
14472;SDS011;7322;50.872;4.386;2023-03-01T06:03:17;2.00;;;1.80;;
14472;SDS011;7322;50.872;4.386;2023-03-01T06:05:55;2.03;;;1.80;;
14472;SDS011;7322;50.872;4.386;2023-03-01T06:08:31;2.00;;;1.80;;
14472;SDS011;7322;50.872;4.386;2023-03-01T06:13:30;1.70;;;1.60;;
14472;SDS011;7322;50.872;4.386;2023-03-01T06:15:58;2.20;;;1.80;;
14472;SDS011;7322;50.872;4.386;2023-03-01T06:18:27;2.10;;;1.90;;
14472;SDS011;7322;50.872;4.386;2023-03-01T06:21:02;2.47;;;1.87;;
14472;SDS011;7322;50.872;4.386;2023-03-01T06:26:06;1.97;;;1.73;;
14472;SDS011;7322;50.872;4.386;2023-03-01T06:28:33;1.70;;;1.60;;
14472;SDS011;7322;50.872;4.386;2023-03-01T06:31:02;2.37;;;1.80;;
14472;SDS011;7322;50.872;4.386;2023-03-01T06:33:35;2.93;;;1.40;;
14472;SDS011;7322;50.872;4.386;2023-03-01T06:36:22;1.87;;;1.60;;
14472;SDS011;7322;50.872;4.386;2023-03-01T06:38:49;2.10;;;1.87;;
14472;SDS011;7322;50.872;4.386;2023-03-01T06:41:17;2.20;;;1.70;;
14472;SDS011;7322;50.872;4.386;2023-03-01T06:43:47;2.10;;;1.80;;
14472;SDS011;7322;50.872;4.386;2023-03-01T06:46:14;2.63;;;1.70;;
14472;SDS011;7322;50.872;4.386;2023-03-01T06:48:44;2.73;;;2.00;;
14472;SDS011;7322;50.872;4.386;2023-03-01T06:51:14;1.87;;;1.70;;
14472;SDS011;7322;50.872;4.386;2023-03-01T06:53:50;2.90;;;1.83;;
14472;SDS011;7322;50.872;4.386;2023-03-01T06:56:20;1.90;;;1.60;;
14472;SDS011;7322;50.872;4.386;2023-03-01T06:58:54;2.97;;;1.70;;
14472;SDS011;7322;50.872;4.386;2023-03-01T07:01:27;3.23;;;1.93;;
14472;SDS011;7322;50.872;4.386;2023-03-01T07:03:54;3.03;;;1.90;;
14472;SDS011;7322;50.872;4.386;2023-03-01T07:15:08;2.67;;;1.73;;
14472;SDS011;7322;50.872;4.386;2023-03-01T07:17:43;2.67;;;2.00;;
14472;SDS011;7322;50.872;4.386;2023-03-01T07:20:21;3.43;;;1.70;;
14472;SDS011;7322;50.872;4.386;2023-03-01T07:27:55;2.40;;;1.63;;
14472;SDS011;7322;50.872;4.386;2023-03-01T07:30:22;2.37;;;1.77;;
14472;SDS011;7322;50.872;4.386;2023-03-01T07:33:08;3.00;;;1.87;;
14472;SDS011;7322;50.872;4.386;2023-03-01T07:35:45;2.80;;;1.90;;
14472;SDS011;7322;50.872;4.386;2023-03-01T07:43:56;2.00;;;1.67;;
14472;SDS011;7322;50.872;4.386;2023-03-01T07:46:23;1.80;;;1.70;;
14472;SDS011;7322;50.872;4.386;2023-03-01T07:48:50;1.90;;;1.60;;
14472;SDS011;7322;50.872;4.386;2023-03-01T07:51:23;1.80;;;1.70;;
14472;SDS011;7322;50.872;4.386;2023-03-01T07:56:40;2.57;;;1.70;;
14472;SDS011;7322;50.872;4.386;2023-03-01T07:59:09;2.13;;;1.60;;
14472;SDS011;7322;50.872;4.386;2023-03-01T08:01:48;2.00;;;1.80;;
14472;SDS011;7322;50.872;4.386;2023-03-01T08:04:17;2.60;;;1.67;;
14472;SDS011;7322;50.872;4.386;2023-03-01T08:06:52;2.30;;;1.80;;
14472;SDS011;7322;50.872;4.386;2023-03-01T08:12:01;2.23;;;1.80;;
14472;SDS011;7322;50.872;4.386;2023-03-01T08:14:32;2.57;;;1.73;;
14472;SDS011;7322;50.872;4.386;2023-03-01T08:19:32;2.20;;;1.80;;
14472;SDS011;7322;50.872;4.386;2023-03-01T08:21:59;3.13;;;1.60;;
14472;SDS011;7322;50.872;4.386;2023-03-01T08:27:09;1.80;;;1.50;;
14472;SDS011;7322;50.872;4.386;2023-03-01T08:29:38;2.43;;;1.70;;
14472;SDS011;7322;50.872;4.386;2023-03-01T08:32:05;2.90;;;1.60;;
14472;SDS011;7322;50.872;4.386;2023-03-01T08:34:35;1.90;;;1.47;;
14472;SDS011;7322;50.872;4.386;2023-03-01T08:39:56;3.23;;;1.77;;
14472;SDS011;7322;50.872;4.386;2023-03-01T08:42:40;2.00;;;1.73;;
14472;SDS011;7322;50.872;4.386;2023-03-01T08:45:10;2.33;;;1.90;;
14472;SDS011;7322;50.872;4.386;2023-03-01T08:47:39;2.63;;;1.70;;
14472;SDS011;7322;50.872;4.386;2023-03-01T08:50:16;3.57;;;1.93;;
14472;SDS011;7322;50.872;4.386;2023-03-01T08:52:45;2.23;;;1.70;;
14472;SDS011;7322;50.872;4.386;2023-03-01T08:55:12;2.70;;;1.77;;
14472;SDS011;7322;50.872;4.386;2023-03-01T08:57:49;2.67;;;1.53;;
14472;SDS011;7322;50.872;4.386;2023-03-01T09:00:18;1.93;;;1.67;;
14472;SDS011;7322;50.872;4.386;2023-03-01T09:02:45;2.13;;;1.67;;
14472;SDS011;7322;50.872;4.386;2023-03-01T09:05:13;2.63;;;1.70;;
14472;SDS011;7322;50.872;4.386;2023-03-01T09:07:42;2.03;;;1.70;;
14472;SDS011;7322;50.872;4.386;2023-03-01T09:10:16;1.77;;;1.50;;
14472;SDS011;7322;50.872;4.386;2023-03-01T09:12:53;2.40;;;1.70;;
14472;SDS011;7322;50.872;4.386;2023-03-01T09:15:30;2.03;;;1.83;;
14472;SDS011;7322;50.872;4.386;2023-03-01T09:18:00;2.30;;;1.67;;
14472;SDS011;7322;50.872;4.386;2023-03-01T09:23:07;1.87;;;1.70;;
14472;SDS011;7322;50.872;4.386;2023-03-01T09:25:42;2.00;;;1.60;;
14472;SDS011;7322;50.872;4.386;2023-03-01T09:30:58;2.90;;;1.60;;
14472;SDS011;7322;50.872;4.386;2023-03-01T09:33:36;2.47;;;1.70;;
14472;SDS011;7322;50.872;4.386;2023-03-01T09:38:48;2.90;;;1.83;;
14472;SDS011;7322;50.872;4.386;2023-03-01T09:49:54;1.93;;;1.50;;
14472;SDS011;7322;50.872;4.386;2023-03-01T09:52:29;1.93;;;1.73;;
14472;SDS011;7322;50.872;4.386;2023-03-01T09:55:00;2.30;;;1.43;;
14472;SDS011;7322;50.872;4.386;2023-03-01T09:57:33;2.23;;;1.80;;
14472;SDS011;7322;50.872;4.386;2023-03-01T10:00:26;1.70;;;1.50;;
14472;SDS011;7322;50.872;4.386;2023-03-01T10:03:02;1.50;;;1.40;;
14472;SDS011;7322;50.872;4.386;2023-03-01T10:05:41;1.90;;;1.60;;
14472;SDS011;7322;50.872;4.386;2023-03-01T10:11:12;1.60;;;1.50;;
14472;SDS011;7322;50.872;4.386;2023-03-01T10:13:55;1.73;;;1.60;;
14472;SDS011;7322;50.872;4.386;2023-03-01T10:16:28;2.10;;;1.60;;
14472;SDS011;7322;50.872;4.386;2023-03-01T10:22:03;2.13;;;1.70;;
14472;SDS011;7322;50.872;4.386;2023-03-01T10:24:38;2.90;;;1.77;;
14472;SDS011;7322;50.872;4.386;2023-03-01T10:27:07;1.93;;;1.73;;
14472;SDS011;7322;50.872;4.386;2023-03-01T10:32:30;1.93;;;1.70;;
14472;SDS011;7322;50.872;4.386;2023-03-01T10:35:14;1.97;;;1.57;;
14472;SDS011;7322;50.872;4.386;2023-03-01T10:43:10;1.83;;;1.57;;
14472;SDS011;7322;50.872;4.386;2023-03-01T10:45:39;2.00;;;1.60;;
14472;SDS011;7322;50.872;4.386;2023-03-01T10:48:11;1.87;;;1.47;;
14472;SDS011;7322;50.872;4.386;2023-03-01T10:53:43;1.70;;;1.60;;
14472;SDS011;7322;50.872;4.386;2023-03-01T10:56:15;2.20;;;1.60;;
14472;SDS011;7322;50.872;4.386;2023-03-01T10:58:56;1.63;;;1.53;;
14472;SDS011;7322;50.872;4.386;2023-03-01T11:01:37;1.47;;;1.37;;
14472;SDS011;7322;50.872;4.386;2023-03-01T11:06:43;2.73;;;1.53;;
14472;SDS011;7322;50.872;4.386;2023-03-01T11:09:32;1.63;;;1.50;;
14472;SDS011;7322;50.872;4.386;2023-03-01T11:12:13;1.60;;;1.50;;
14472;SDS011;7322;50.872;4.386;2023-03-01T11:14:46;2.50;;;1.80;;
14472;SDS011;7322;50.872;4.386;2023-03-01T11:17:24;1.80;;;1.40;;
14472;SDS011;7322;50.872;4.386;2023-03-01T11:20:00;1.90;;;1.70;;
14472;SDS011;7322;50.872;4.386;2023-03-01T11:22:33;1.50;;;1.40;;
14472;SDS011;7322;50.872;4.386;2023-03-01T11:25:07;1.70;;;1.47;;
14472;SDS011;7322;50.872;4.386;2023-03-01T11:27:40;2.27;;;1.60;;
14472;SDS011;7322;50.872;4.386;2023-03-01T11:32:51;1.73;;;1.63;;
14472;SDS011;7322;50.872;4.386;2023-03-01T11:35:27;2.27;;;1.80;;
14472;SDS011;7322;50.872;4.386;2023-03-01T11:38:01;1.73;;;1.40;;
14472;SDS011;7322;50.872;4.386;2023-03-01T11:40:37;2.83;;;1.50;;
14472;SDS011;7322;50.872;4.386;2023-03-01T11:43:12;1.60;;;1.40;;
14472;SDS011;7322;50.872;4.386;2023-03-01T11:45:50;1.50;;;1.40;;
14472;SDS011;7322;50.872;4.386;2023-03-01T11:48:40;2.30;;;1.60;;
14472;SDS011;7322;50.872;4.386;2023-03-01T11:51:24;4.00;;;1.87;;
14472;SDS011;7322;50.872;4.386;2023-03-01T11:54:12;2.30;;;1.90;;
14472;SDS011;7322;50.872;4.386;2023-03-01T11:57:00;2.10;;;1.50;;
14472;SDS011;7322;50.872;4.386;2023-03-01T12:18:44;2.10;;;1.67;;
14472;SDS011;7322;50.872;4.386;2023-03-01T12:21:27;2.13;;;1.70;;
14472;SDS011;7322;50.872;4.386;2023-03-01T12:27:22;2.27;;;1.40;;
14472;SDS011;7322;50.872;4.386;2023-03-01T12:30:24;2.07;;;1.80;;
14472;SDS011;7322;50.872;4.386;2023-03-01T12:33:12;1.33;;;1.23;;
14472;SDS011;7322;50.872;4.386;2023-03-01T12:36:02;2.20;;;1.40;;
14472;SDS011;7322;50.872;4.386;2023-03-01T12:38:47;1.70;;;1.60;;
14472;SDS011;7322;50.872;4.386;2023-03-01T12:41:29;2.27;;;1.60;;
14472;SDS011;7322;50.872;4.386;2023-03-01T12:44:20;2.80;;;1.67;;
14472;SDS011;7322;50.872;4.386;2023-03-01T12:47:19;1.73;;;1.60;;
14472;SDS011;7322;50.872;4.386;2023-03-01T12:52:33;1.60;;;1.50;;
14472;SDS011;7322;50.872;4.386;2023-03-01T12:57:54;1.43;;;1.33;;
14472;SDS011;7322;50.872;4.386;2023-03-01T13:00:32;2.07;;;1.50;;
14472;SDS011;7322;50.872;4.386;2023-03-01T13:03:17;2.00;;;1.77;;
14472;SDS011;7322;50.872;4.386;2023-03-01T13:05:56;2.07;;;1.50;;
14472;SDS011;7322;50.872;4.386;2023-03-01T13:08:35;1.73;;;1.50;;
14472;SDS011;7322;50.872;4.386;2023-03-01T13:11:11;1.50;;;1.37;;
14472;SDS011;7322;50.872;4.386;2023-03-01T13:13:44;3.40;;;1.40;;
14472;SDS011;7322;50.872;4.386;2023-03-01T13:16:38;1.60;;;1.33;;
14472;SDS011;7322;50.872;4.386;2023-03-01T13:19:14;2.67;;;1.70;;
14472;SDS011;7322;50.872;4.386;2023-03-01T13:21:43;1.87;;;1.43;;
14472;SDS011;7322;50.872;4.386;2023-03-01T13:24:27;1.70;;;1.40;;
14472;SDS011;7322;50.872;4.386;2023-03-01T13:27:21;2.00;;;1.70;;
14472;SDS011;7322;50.872;4.386;2023-03-01T13:30:00;1.43;;;1.30;;
14472;SDS011;7322;50.872;4.386;2023-03-01T13:41:47;1.67;;;1.57;;
14472;SDS011;7322;50.872;4.386;2023-03-01T13:44:21;1.73;;;1.50;;
14472;SDS011;7322;50.872;4.386;2023-03-01T13:46:51;2.10;;;1.70;;
14472;SDS011;7322;50.872;4.386;2023-03-01T13:49:22;1.90;;;1.70;;
14472;SDS011;7322;50.872;4.386;2023-03-01T13:51:52;2.80;;;1.60;;
14472;SDS011;7322;50.872;4.386;2023-03-01T13:54:30;2.27;;;1.50;;
14472;SDS011;7322;50.872;4.386;2023-03-01T13:57:02;2.20;;;1.73;;
14472;SDS011;7322;50.872;4.386;2023-03-01T13:59:46;2.53;;;1.80;;
14472;SDS011;7322;50.872;4.386;2023-03-01T14:04:57;1.87;;;1.60;;
14472;SDS011;7322;50.872;4.386;2023-03-01T14:07:26;1.93;;;1.73;;
14472;SDS011;7322;50.872;4.386;2023-03-01T14:10:03;1.60;;;1.50;;
14472;SDS011;7322;50.872;4.386;2023-03-01T14:15:22;2.10;;;1.60;;
14472;SDS011;7322;50.872;4.386;2023-03-01T14:18:04;2.13;;;1.70;;
14472;SDS011;7322;50.872;4.386;2023-03-01T14:23:17;2.57;;;1.87;;
14472;SDS011;7322;50.872;4.386;2023-03-01T14:25:53;1.50;;;1.30;;
14472;SDS011;7322;50.872;4.386;2023-03-01T14:28:23;1.67;;;1.57;;
14472;SDS011;7322;50.872;4.386;2023-03-01T14:36:54;3.20;;;1.63;;
14472;SDS011;7322;50.872;4.386;2023-03-01T14:39:29;2.13;;;1.60;;
14472;SDS011;7322;50.872;4.386;2023-03-01T14:41:59;1.70;;;1.60;;
14472;SDS011;7322;50.872;4.386;2023-03-01T14:44:40;1.50;;;1.40;;
14472;SDS011;7322;50.872;4.386;2023-03-01T14:47:11;1.93;;;1.43;;
14472;SDS011;7322;50.872;4.386;2023-03-01T14:49:40;2.37;;;1.60;;
14472;SDS011;7322;50.872;4.386;2023-03-01T14:55:18;2.63;;;1.60;;
14472;SDS011;7322;50.872;4.386;2023-03-01T14:57:47;2.00;;;1.27;;
14472;SDS011;7322;50.872;4.386;2023-03-01T15:00:17;2.57;;;1.50;;
14472;SDS011;7322;50.872;4.386;2023-03-01T15:02:47;1.73;;;1.60;;
14472;SDS011;7322;50.872;4.386;2023-03-01T15:05:18;1.60;;;1.50;;
14472;SDS011;7322;50.872;4.386;2023-03-01T15:07:53;3.00;;;1.80;;
14472;SDS011;7322;50.872;4.386;2023-03-01T15:10:21;2.43;;;1.70;;
14472;SDS011;7322;50.872;4.386;2023-03-01T15:12:53;2.37;;;1.50;;
14472;SDS011;7322;50.872;4.386;2023-03-01T15:15:30;2.20;;;1.57;;
14472;SDS011;7322;50.872;4.386;2023-03-01T15:18:00;1.70;;;1.57;;
14472;SDS011;7322;50.872;4.386;2023-03-01T15:20:35;1.70;;;1.50;;
14472;SDS011;7322;50.872;4.386;2023-03-01T15:23:04;2.20;;;1.60;;
14472;SDS011;7322;50.872;4.386;2023-03-01T15:25:32;2.73;;;1.77;;
14472;SDS011;7322;50.872;4.386;2023-03-01T15:28:12;1.57;;;1.47;;
14472;SDS011;7322;50.872;4.386;2023-03-01T15:30:51;3.00;;;1.50;;
14472;SDS011;7322;50.872;4.386;2023-03-01T15:33:29;2.20;;;1.70;;
14472;SDS011;7322;50.872;4.386;2023-03-01T15:42:11;2.70;;;1.53;;
14472;SDS011;7322;50.872;4.386;2023-03-01T15:44:42;1.83;;;1.60;;
14472;SDS011;7322;50.872;4.386;2023-03-01T15:47:23;2.40;;;1.70;;
14472;SDS011;7322;50.872;4.386;2023-03-01T15:49:53;1.93;;;1.53;;
14472;SDS011;7322;50.872;4.386;2023-03-01T15:52:22;1.60;;;1.50;;
14472;SDS011;7322;50.872;4.386;2023-03-01T15:54:55;2.37;;;1.50;;
14472;SDS011;7322;50.872;4.386;2023-03-01T15:57:33;2.00;;;1.47;;
14472;SDS011;7322;50.872;4.386;2023-03-01T16:00:09;2.13;;;1.70;;
14472;SDS011;7322;50.872;4.386;2023-03-01T16:02:44;1.73;;;1.50;;
14472;SDS011;7322;50.872;4.386;2023-03-01T16:05:20;2.40;;;1.37;;
14472;SDS011;7322;50.872;4.386;2023-03-01T16:07:50;1.77;;;1.43;;
14472;SDS011;7322;50.872;4.386;2023-03-01T16:10:25;1.60;;;1.50;;
14472;SDS011;7322;50.872;4.386;2023-03-01T16:12:53;2.23;;;1.60;;
14472;SDS011;7322;50.872;4.386;2023-03-01T16:15:22;2.37;;;1.70;;
14472;SDS011;7322;50.872;4.386;2023-03-01T16:17:54;2.20;;;1.47;;
14472;SDS011;7322;50.872;4.386;2023-03-01T16:20:23;2.83;;;1.73;;
14472;SDS011;7322;50.872;4.386;2023-03-01T16:22:51;1.63;;;1.50;;
14472;SDS011;7322;50.872;4.386;2023-03-01T16:25:20;1.93;;;1.50;;
14472;SDS011;7322;50.872;4.386;2023-03-01T16:27:55;1.90;;;1.60;;
14472;SDS011;7322;50.872;4.386;2023-03-01T16:30:35;2.67;;;1.50;;
14472;SDS011;7322;50.872;4.386;2023-03-01T16:38:17;4.43;;;1.63;;
14472;SDS011;7322;50.872;4.386;2023-03-01T16:40:52;2.03;;;1.37;;
14472;SDS011;7322;50.872;4.386;2023-03-01T16:46:11;1.93;;;1.63;;
14472;SDS011;7322;50.872;4.386;2023-03-01T16:48:57;1.80;;;1.47;;
14472;SDS011;7322;50.872;4.386;2023-03-01T16:54:23;3.10;;;1.63;;
14472;SDS011;7322;50.872;4.386;2023-03-01T16:57:01;2.37;;;1.77;;
14472;SDS011;7322;50.872;4.386;2023-03-01T16:59:35;2.63;;;1.70;;
14472;SDS011;7322;50.872;4.386;2023-03-01T17:10:51;2.90;;;1.57;;
14472;SDS011;7322;50.872;4.386;2023-03-01T17:13:25;2.20;;;1.47;;
14472;SDS011;7322;50.872;4.386;2023-03-01T17:15:54;1.90;;;1.67;;
14472;SDS011;7322;50.872;4.386;2023-03-01T17:18:23;1.97;;;1.53;;
14472;SDS011;7322;50.872;4.386;2023-03-01T17:23:44;1.87;;;1.40;;
14472;SDS011;7322;50.872;4.386;2023-03-01T17:26:23;1.90;;;1.60;;
14472;SDS011;7322;50.872;4.386;2023-03-01T17:31:29;1.67;;;1.50;;
14472;SDS011;7322;50.872;4.386;2023-03-01T17:34:02;2.00;;;1.63;;
14472;SDS011;7322;50.872;4.386;2023-03-01T17:36:29;2.50;;;1.63;;
14472;SDS011;7322;50.872;4.386;2023-03-01T17:42:00;3.13;;;1.70;;
14472;SDS011;7322;50.872;4.386;2023-03-01T17:44:29;2.53;;;1.60;;
14472;SDS011;7322;50.872;4.386;2023-03-01T17:47:03;1.50;;;1.30;;
14472;SDS011;7322;50.872;4.386;2023-03-01T17:49:37;2.63;;;1.60;;
14472;SDS011;7322;50.872;4.386;2023-03-01T17:52:10;2.47;;;1.70;;
14472;SDS011;7322;50.872;4.386;2023-03-01T18:00:37;3.07;;;1.87;;
14472;SDS011;7322;50.872;4.386;2023-03-01T18:05:52;1.90;;;1.67;;
14472;SDS011;7322;50.872;4.386;2023-03-01T18:08:21;2.67;;;1.80;;
14472;SDS011;7322;50.872;4.386;2023-03-01T18:10:56;1.40;;;1.30;;
14472;SDS011;7322;50.872;4.386;2023-03-01T18:15:58;2.07;;;1.50;;
14472;SDS011;7322;50.872;4.386;2023-03-01T18:18:44;2.17;;;1.67;;
14472;SDS011;7322;50.872;4.386;2023-03-01T18:21:13;2.33;;;1.63;;
14472;SDS011;7322;50.872;4.386;2023-03-01T18:26:23;2.20;;;1.43;;
14472;SDS011;7322;50.872;4.386;2023-03-01T18:28:52;1.73;;;1.40;;
14472;SDS011;7322;50.872;4.386;2023-03-01T18:31:22;1.90;;;1.30;;
14472;SDS011;7322;50.872;4.386;2023-03-01T18:33:53;2.00;;;1.30;;
14472;SDS011;7322;50.872;4.386;2023-03-01T18:36:21;2.77;;;1.60;;
14472;SDS011;7322;50.872;4.386;2023-03-01T18:38:50;2.17;;;1.50;;
14472;SDS011;7322;50.872;4.386;2023-03-01T18:41:20;1.97;;;1.67;;
14472;SDS011;7322;50.872;4.386;2023-03-01T18:43:48;3.00;;;1.97;;
14472;SDS011;7322;50.872;4.386;2023-03-01T18:46:15;2.90;;;1.70;;
14472;SDS011;7322;50.872;4.386;2023-03-01T18:48:45;2.97;;;1.87;;
14472;SDS011;7322;50.872;4.386;2023-03-01T18:51:16;2.20;;;1.70;;
14472;SDS011;7322;50.872;4.386;2023-03-01T18:53:46;3.37;;;1.90;;
14472;SDS011;7322;50.872;4.386;2023-03-01T18:56:13;3.20;;;2.27;;
14472;SDS011;7322;50.872;4.386;2023-03-01T18:58:41;2.77;;;2.00;;
14472;SDS011;7322;50.872;4.386;2023-03-01T19:01:11;3.67;;;2.17;;
14472;SDS011;7322;50.872;4.386;2023-03-01T19:06:47;3.40;;;1.93;;
14472;SDS011;7322;50.872;4.386;2023-03-01T19:09:29;5.67;;;2.20;;
14472;SDS011;7322;50.872;4.386;2023-03-01T19:11:56;9.03;;;2.60;;
14472;SDS011;7322;50.872;4.386;2023-03-01T19:14:27;4.53;;;2.40;;
14472;SDS011;7322;50.872;4.386;2023-03-01T19:17:01;3.80;;;2.30;;